createdAt,value
2023-03-28T00:01:09.307Z,4.33
2023-03-28T00:03:40.145Z,4.53
2023-03-28T00:06:11.939Z,4.60
2023-03-28T00:08:40.342Z,4.56
2023-03-28T00:11:20.281Z,4.52
2023-03-28T00:13:58.423Z,4.52
2023-03-28T00:16:39.407Z,4.29
2023-03-28T00:19:17.867Z,4.02
2023-03-28T00:21:48.011Z,4.66
2023-03-28T00:24:18.881Z,4.15
2023-03-28T00:26:49.529Z,4.16
2023-03-28T00:29:21.708Z,4.14
2023-03-28T00:31:51.038Z,4.74
2023-03-28T00:34:19.727Z,4.41
2023-03-28T00:36:47.485Z,4.61
2023-03-28T00:39:15.441Z,4.42
2023-03-28T00:41:45.079Z,4.57
2023-03-28T00:44:43.709Z,4.47
2023-03-28T00:47:16.657Z,4.50
2023-03-28T00:49:46.859Z,4.60
2023-03-28T00:52:18.008Z,4.05
2023-03-28T00:54:46.431Z,4.54
2023-03-28T00:57:14.689Z,4.52
2023-03-28T00:59:44.776Z,4.60
2023-03-28T01:02:12.433Z,4.45
2023-03-28T01:04:52.644Z,4.17
2023-03-28T01:07:21.372Z,4.11
2023-03-28T01:09:49.293Z,4.38
2023-03-28T01:12:18.023Z,4.59
2023-03-28T01:14:47.880Z,4.17
2023-03-28T01:17:16.186Z,4.57
2023-03-28T01:20:06.624Z,4.40
2023-03-28T01:23:09.009Z,4.01
2023-03-28T01:25:46.118Z,4.20
2023-03-28T01:28:34.619Z,4.10
2023-03-28T01:31:15.795Z,3.76
2023-03-28T01:34:31.501Z,4.01
2023-03-28T01:37:09.593Z,3.84
2023-03-28T01:39:47.678Z,3.85
2023-03-28T01:42:22.725Z,3.89
2023-03-28T01:45:14.821Z,4.03
2023-03-28T01:47:49.514Z,4.07
2023-03-28T01:50:19.843Z,3.84
2023-03-28T01:52:51.861Z,3.48
2023-03-28T01:55:24.168Z,3.83
2023-03-28T01:58:05.781Z,4.14
2023-03-28T02:00:44.148Z,3.66
2023-03-28T02:03:31.892Z,3.72
2023-03-28T02:06:04.750Z,3.44
2023-03-28T02:08:38.031Z,3.54
2023-03-28T02:11:10.255Z,3.80
2023-03-28T02:13:45.729Z,3.94
2023-03-28T02:16:16.856Z,3.88
2023-03-28T02:18:49.232Z,3.86
2023-03-28T02:21:22.845Z,3.60
2023-03-28T02:23:53.164Z,3.33
2023-03-28T02:26:24.771Z,4.19
2023-03-28T02:28:56.704Z,4.04
2023-03-28T02:31:25.725Z,3.70
2023-03-28T02:33:56.206Z,4.15
2023-03-28T02:36:27.018Z,3.75
2023-03-28T02:39:10.460Z,3.92
2023-03-28T02:42:02.874Z,3.86
2023-03-28T02:44:59.726Z,4.00
2023-03-28T02:47:49.131Z,3.64
2023-03-28T02:50:55.626Z,3.70
2023-03-28T02:53:46.094Z,3.82
2023-03-28T02:56:53.297Z,3.96
2023-03-28T02:59:31.859Z,3.62
2023-03-28T03:02:01.625Z,4.11
2023-03-28T03:04:29.825Z,3.89
2023-03-28T03:07:02.216Z,4.16
2023-03-28T03:09:30.572Z,3.96
2023-03-28T03:11:58.103Z,4.20
2023-03-28T03:14:26.321Z,4.00
2023-03-28T03:16:55.188Z,4.29
2023-03-28T03:19:22.841Z,3.35
2023-03-28T03:21:50.972Z,3.90
2023-03-28T03:24:18.970Z,3.93
2023-03-28T03:26:47.419Z,4.13
2023-03-28T03:29:16.639Z,4.23
2023-03-28T03:31:46.329Z,3.96
2023-03-28T03:34:16.609Z,4.45
2023-03-28T03:36:45.585Z,4.25
2023-03-28T03:39:13.868Z,4.14
2023-03-28T03:41:41.999Z,3.72
2023-03-28T03:44:10.084Z,3.62
2023-03-28T03:46:41.128Z,3.74
2023-03-28T03:49:12.620Z,4.02
2023-03-28T03:51:47.892Z,3.90
2023-03-28T03:54:15.736Z,3.93
2023-03-28T03:56:46.527Z,3.89
2023-03-28T03:59:19.392Z,4.15
2023-03-28T04:01:57.687Z,3.66
2023-03-28T04:04:28.970Z,3.92
2023-03-28T04:06:59.154Z,3.84
2023-03-28T04:09:28.803Z,4.01
2023-03-28T04:11:56.770Z,3.84
2023-03-28T04:14:26.701Z,4.03
2023-03-28T04:17:02.274Z,4.14
2023-03-28T04:19:32.933Z,3.58
2023-03-28T04:22:01.045Z,3.92
2023-03-28T04:24:30.457Z,4.05
2023-03-28T04:26:59.470Z,4.18
2023-03-28T04:29:32.555Z,4.55
2023-03-28T04:32:11.190Z,4.34
2023-03-28T04:34:51.918Z,3.93
2023-03-28T04:37:20.618Z,3.89
2023-03-28T04:39:49.653Z,3.89
2023-03-28T04:42:28.076Z,4.22
2023-03-28T04:45:04.701Z,4.08
2023-03-28T04:47:40.695Z,4.22
2023-03-28T04:50:11.152Z,4.28
2023-03-28T04:52:42.947Z,4.19
2023-03-28T04:55:17.855Z,4.05
2023-03-28T04:57:51.869Z,3.91
2023-03-28T05:00:22.823Z,4.23
2023-03-28T05:03:05.995Z,3.94
2023-03-28T05:05:41.639Z,3.95
2023-03-28T05:08:21.782Z,4.35
2023-03-28T05:10:52.033Z,4.26
2023-03-28T05:13:29.606Z,3.68
2023-03-28T05:16:00.948Z,4.07
2023-03-28T05:18:32.659Z,3.90
2023-03-28T05:21:02.241Z,4.35
2023-03-28T05:23:34.951Z,4.20
2023-03-28T05:26:08.674Z,4.18
2023-03-28T05:28:39.852Z,4.53
2023-03-28T05:31:09.665Z,3.97
2023-03-28T05:33:38.483Z,4.35
2023-03-28T05:36:07.706Z,4.45
2023-03-28T05:38:37.523Z,4.15
2023-03-28T05:41:08.836Z,4.33
2023-03-28T05:43:41.026Z,4.27
2023-03-28T05:46:10.467Z,4.52
2023-03-28T05:48:41.810Z,4.36
2023-03-28T05:51:17.285Z,4.64
2023-03-28T05:53:47.645Z,4.62
2023-03-28T05:56:18.933Z,4.73
2023-03-28T05:58:56.607Z,4.51
2023-03-28T06:01:29.317Z,4.90
2023-03-28T06:04:02.267Z,4.90
2023-03-28T06:06:34.622Z,4.78
2023-03-28T06:09:12.668Z,5.07
2023-03-28T06:11:42.407Z,4.85
2023-03-28T06:14:11.519Z,5.19
2023-03-28T06:16:40.690Z,5.28
2023-03-28T06:19:17.668Z,5.31
2023-03-28T06:21:51.222Z,4.87
2023-03-28T06:24:21.533Z,5.59
2023-03-28T06:26:55.670Z,5.57
2023-03-28T06:29:25.665Z,5.86
2023-03-28T06:31:56.391Z,5.29
2023-03-28T06:34:30.850Z,5.43
2023-03-28T06:37:02.740Z,5.99
2023-03-28T06:39:33.572Z,5.80
2023-03-28T06:42:03.561Z,5.26
2023-03-28T06:44:33.153Z,5.23
2023-03-28T06:47:02.952Z,5.53
2023-03-28T06:49:32.181Z,5.82
2023-03-28T06:52:06.245Z,5.73
2023-03-28T06:54:37.241Z,6.21
2023-03-28T06:57:08.402Z,5.93
2023-03-28T06:59:44.646Z,5.88
2023-03-28T07:02:14.903Z,5.49
2023-03-28T07:04:43.956Z,5.89
2023-03-28T07:07:17.810Z,6.23
2023-03-28T07:09:49.964Z,6.40
2023-03-28T07:12:19.921Z,5.97
2023-03-28T07:14:49.071Z,6.31
2023-03-28T07:17:17.833Z,6.60
2023-03-28T07:19:51.328Z,6.40
2023-03-28T07:22:21.970Z,6.75
2023-03-28T07:24:50.160Z,6.81
2023-03-28T07:27:26.638Z,6.63
2023-03-28T07:32:48.110Z,6.47
2023-03-28T07:35:23.045Z,6.83
2023-03-28T07:37:54.177Z,6.76
2023-03-28T07:40:32.564Z,6.72
2023-03-28T07:43:01.837Z,6.24
2023-03-28T07:45:32.279Z,6.50
2023-03-28T07:48:01.212Z,6.67
2023-03-28T07:50:35.620Z,6.63
2023-03-28T07:53:04.256Z,6.21
2023-03-28T07:55:39.392Z,6.40
2023-03-28T07:58:16.981Z,6.60
2023-03-28T08:00:53.826Z,6.47
2023-03-28T08:03:24.772Z,6.73
2023-03-28T08:05:54.685Z,6.31
2023-03-28T08:08:24.101Z,7.10
2023-03-28T08:10:52.744Z,7.23
2023-03-28T08:13:21.338Z,7.10
2023-03-28T08:15:55.527Z,6.63
2023-03-28T08:18:26.701Z,6.75
2023-03-28T08:21:02.275Z,6.91
2023-03-28T08:23:38.791Z,6.54
2023-03-28T08:26:08.606Z,6.63
2023-03-28T08:28:42.650Z,6.88
2023-03-28T08:31:16.357Z,7.12
2023-03-28T08:33:49.562Z,7.10
2023-03-28T08:36:23.431Z,7.23
2023-03-28T08:38:55.236Z,7.31
2023-03-28T08:41:45.586Z,7.50
2023-03-28T08:44:33.808Z,7.40
2023-03-28T08:47:12.284Z,7.61
2023-03-28T08:50:24.632Z,7.57
2023-03-28T08:52:56.293Z,7.75
2023-03-28T08:55:28.536Z,7.96
2023-03-28T08:57:57.424Z,8.08
2023-03-28T09:00:29.694Z,8.38
2023-03-28T09:03:00.195Z,7.71
2023-03-28T09:05:49.924Z,7.74
2023-03-28T09:08:45.929Z,7.59
2023-03-28T09:11:42.152Z,7.20
2023-03-28T09:14:37.983Z,7.40
2023-03-28T09:17:39.708Z,7.40
2023-03-28T09:23:08.229Z,8.01
2023-03-28T09:25:51.596Z,7.55
2023-03-28T09:28:34.618Z,7.92
2023-03-28T09:31:06.054Z,8.28
2023-03-28T09:33:45.575Z,8.20
2023-03-28T09:36:31.569Z,8.12
2023-03-28T09:39:18.544Z,8.16
2023-03-28T09:42:04.600Z,8.40
2023-03-28T09:44:53.971Z,8.29
2023-03-28T09:47:27.810Z,8.35
2023-03-28T09:50:09.420Z,8.25
2023-03-28T09:52:43.641Z,8.00
2023-03-28T09:55:19.115Z,8.17
2023-03-28T09:58:04.895Z,8.35
2023-03-28T10:00:38.769Z,8.91
2023-03-28T10:03:35.007Z,8.22
2023-03-28T10:06:31.714Z,7.80
2023-03-28T10:09:18.511Z,8.64
2023-03-28T10:11:55.798Z,8.53
2023-03-28T10:14:36.936Z,8.14
2023-03-28T10:19:54.594Z,8.79
2023-03-28T10:22:26.334Z,8.72
2023-03-28T10:24:56.887Z,8.57
2023-03-28T10:27:53.826Z,8.71
2023-03-28T10:30:37.161Z,8.85
2023-03-28T10:33:21.544Z,8.75
2023-03-28T10:36:07.905Z,8.55
2023-03-28T10:38:47.410Z,8.14
2023-03-28T10:44:18.079Z,8.33
2023-03-28T10:46:47.425Z,8.06
2023-03-28T10:49:20.440Z,8.67
2023-03-28T10:51:55.157Z,8.67
2023-03-28T10:54:35.125Z,9.00
2023-03-28T10:57:18.877Z,9.37
2023-03-28T11:00:08.676Z,8.92
2023-03-28T11:02:56.046Z,9.71
2023-03-28T11:05:40.654Z,9.70
2023-03-28T11:08:19.756Z,9.84
2023-03-28T11:11:21.025Z,9.86
2023-03-28T11:14:07.600Z,9.62
2023-03-28T11:16:59.174Z,9.08
2023-03-28T11:19:49.614Z,9.37
2023-03-28T11:22:49.699Z,9.24
2023-03-28T11:25:57.917Z,9.10
2023-03-28T11:28:46.561Z,9.59
2023-03-28T11:31:20.682Z,9.84
2023-03-28T11:33:53.406Z,9.88
2023-03-28T11:36:40.876Z,9.52
2023-03-28T11:39:57.642Z,9.40
2023-03-28T11:42:53.614Z,9.56
2023-03-28T11:45:51.407Z,9.38
2023-03-28T11:48:28.912Z,9.38
2023-03-28T11:54:04.585Z,9.83
2023-03-28T11:56:41.627Z,9.51
2023-03-28T11:59:27.154Z,10.49
2023-03-28T12:07:53.594Z,10.15
2023-03-28T12:10:38.422Z,10.29
2023-03-28T12:13:16.933Z,10.51
2023-03-28T12:15:57.720Z,10.61
2023-03-28T12:18:43.987Z,10.52
2023-03-28T12:21:21.848Z,10.69
2023-03-28T12:23:54.101Z,10.54
2023-03-28T12:26:45.083Z,10.39
2023-03-28T12:29:18.789Z,10.42
2023-03-28T12:32:17.072Z,10.06
2023-03-28T12:35:20.589Z,10.01
2023-03-28T12:38:23.864Z,10.33
2023-03-28T12:41:02.054Z,10.59
2023-03-28T12:46:14.799Z,10.20
2023-03-28T12:48:51.634Z,10.00
2023-03-28T12:51:41.634Z,10.00
2023-03-28T12:54:21.522Z,10.28
2023-03-28T12:57:00.582Z,10.42
2023-03-28T12:59:52.628Z,10.44
2023-03-28T13:02:48.858Z,10.89
2023-03-28T13:06:02.573Z,10.18
2023-03-28T13:08:35.034Z,10.04
2023-03-28T13:11:38.212Z,9.77
2023-03-28T13:14:20.668Z,10.19
2023-03-28T13:17:03.629Z,9.98
2023-03-28T13:19:53.286Z,9.52
2023-03-28T13:22:33.402Z,9.22
2023-03-28T13:25:28.480Z,8.92
2023-03-28T13:28:22.892Z,8.96
2023-03-28T13:31:12.709Z,8.68
2023-03-28T13:34:06.887Z,9.11
2023-03-28T13:36:37.817Z,9.10
2023-03-28T13:48:12.794Z,8.53
2023-03-28T13:50:48.592Z,8.73
2023-03-28T13:53:28.240Z,8.81
2023-03-28T13:56:11.811Z,8.85
2023-03-28T13:58:42.102Z,8.77
2023-03-28T14:01:17.907Z,8.82
2023-03-28T14:03:49.831Z,8.57
2023-03-28T14:06:28.995Z,9.09
2023-03-28T14:09:15.060Z,9.01
2023-03-28T14:11:53.890Z,8.92
2023-03-28T14:14:44.917Z,8.65
2023-03-28T14:17:23.792Z,9.28
2023-03-28T14:20:01.688Z,9.02
2023-03-28T14:25:14.554Z,8.72
2023-03-28T14:30:32.629Z,8.92
2023-03-28T14:33:15.021Z,8.64
2023-03-28T14:38:47.583Z,8.52
2023-03-28T14:41:27.672Z,8.62
2023-03-28T14:43:58.982Z,8.32
2023-03-28T14:46:33.261Z,8.08
2023-03-28T14:51:46.064Z,7.87
2023-03-28T14:54:27.898Z,7.53
2023-03-28T14:56:59.655Z,7.80
2023-03-28T14:59:51.582Z,8.13
2023-03-28T15:05:17.848Z,6.58
2023-03-28T15:10:54.865Z,5.97
2023-03-28T15:13:32.649Z,6.04
2023-03-28T15:18:54.712Z,5.93
2023-03-28T15:21:30.541Z,6.40
2023-03-28T15:24:07.548Z,6.12
2023-03-28T15:26:50.555Z,6.51
2023-03-28T15:29:25.872Z,6.22
2023-03-28T15:32:17.583Z,5.80
2023-03-28T15:35:10.292Z,6.24
2023-03-28T15:37:48.568Z,6.44
2023-03-28T15:40:31.185Z,6.35
2023-03-28T15:43:27.185Z,6.56
2023-03-28T15:48:41.612Z,6.31
2023-03-28T15:53:57.596Z,6.83
2023-03-28T15:56:41.610Z,6.95
2023-03-28T15:59:35.058Z,6.65
2023-03-28T16:05:10.580Z,7.11
2023-03-28T16:07:51.845Z,6.45
2023-03-28T16:13:19.791Z,6.49
2023-03-28T16:15:57.686Z,6.81
2023-03-28T16:18:43.760Z,6.61
2023-03-28T16:21:19.806Z,6.79
2023-03-28T16:23:54.889Z,7.05
2023-03-28T16:26:25.529Z,7.15
2023-03-28T16:28:56.252Z,7.29
2023-03-28T16:34:17.595Z,7.24
2023-03-28T16:36:49.205Z,7.00
2023-03-28T16:39:20.479Z,6.95
2023-03-28T16:41:49.070Z,7.33
2023-03-28T16:44:26.938Z,6.30
2023-03-28T16:47:02.651Z,7.02
2023-03-28T16:49:32.644Z,6.99
2023-03-28T16:52:09.596Z,7.03
2023-03-28T16:54:57.702Z,7.21
2023-03-28T16:57:32.899Z,6.95
2023-03-28T17:00:14.372Z,6.75
2023-03-28T17:02:53.614Z,6.47
2023-03-28T17:13:48.610Z,6.85
2023-03-28T17:16:25.863Z,6.58
2023-03-28T17:18:55.742Z,6.59
2023-03-28T17:21:33.503Z,6.55
2023-03-28T17:24:19.054Z,6.11
2023-03-28T17:27:05.550Z,6.16
2023-03-28T17:29:46.556Z,6.09
2023-03-28T17:32:18.181Z,6.11
2023-03-28T17:34:52.339Z,6.31
2023-03-28T17:40:09.514Z,6.28
2023-03-28T17:42:48.024Z,6.51
2023-03-28T17:45:16.771Z,5.86
2023-03-28T17:48:03.700Z,6.20
2023-03-28T17:53:17.542Z,6.20
2023-03-28T17:55:48.704Z,6.64
2023-03-28T17:58:37.572Z,6.32
2023-03-28T18:01:18.852Z,5.92
2023-03-28T18:03:54.726Z,6.06
2023-03-28T18:06:27.610Z,6.26
2023-03-28T18:08:56.904Z,6.55
2023-03-28T18:11:43.901Z,5.95
2023-03-28T18:17:05.507Z,6.32
2023-03-28T18:19:43.705Z,6.37
2023-03-28T18:22:22.258Z,6.59
2023-03-28T18:25:01.964Z,6.17
2023-03-28T18:27:43.455Z,6.25
2023-03-28T18:30:25.822Z,6.53
2023-03-28T18:32:59.646Z,5.86
2023-03-28T18:41:01.636Z,6.43
2023-03-28T18:43:37.543Z,6.65
2023-03-28T18:46:18.500Z,6.34
2023-03-28T18:51:36.813Z,6.40
2023-03-28T18:54:17.649Z,6.11
2023-03-28T18:56:50.042Z,6.37
2023-03-28T18:59:30.291Z,6.22
2023-03-28T19:07:18.706Z,6.53
2023-03-28T19:12:30.871Z,5.69
2023-03-28T19:15:06.319Z,5.97
2023-03-28T19:17:41.740Z,5.85
2023-03-28T19:20:24.021Z,6.30
2023-03-28T19:28:07.502Z,6.38
2023-03-28T19:30:47.080Z,6.51
2023-03-28T19:33:18.048Z,6.08
2023-03-28T19:35:52.617Z,5.67
2023-03-28T19:38:26.804Z,5.95
2023-03-28T19:41:10.814Z,6.33
2023-03-28T19:43:41.676Z,5.72
2023-03-28T19:46:33.268Z,5.63
2023-03-28T19:51:47.815Z,5.83
2023-03-28T19:54:27.816Z,5.78
2023-03-28T19:57:06.085Z,5.94
2023-03-28T19:59:36.668Z,5.53
2023-03-28T20:02:16.802Z,5.66
2023-03-28T20:04:48.911Z,5.64
2023-03-28T20:07:21.893Z,5.81
2023-03-28T20:09:55.747Z,5.48
2023-03-28T20:12:26.674Z,5.94
2023-03-28T20:14:56.850Z,5.93
2023-03-28T20:17:26.731Z,5.56
2023-03-28T20:19:55.904Z,5.87
2023-03-28T20:22:29.957Z,5.71
2023-03-28T20:25:05.720Z,5.97
2023-03-28T20:27:49.537Z,5.69
2023-03-28T20:30:24.557Z,5.86
2023-03-28T20:32:53.583Z,5.96
2023-03-28T20:35:29.526Z,5.83
2023-03-28T20:37:59.783Z,5.69
2023-03-28T20:40:28.465Z,5.59
2023-03-28T20:43:08.542Z,5.36
2023-03-28T20:45:46.062Z,5.86
2023-03-28T20:48:34.578Z,5.30
2023-03-28T20:51:16.563Z,5.58
2023-03-28T20:53:50.111Z,5.53
2023-03-28T20:59:06.597Z,5.68
2023-03-28T21:01:41.454Z,5.34
2023-03-28T21:04:12.729Z,5.15
2023-03-28T21:06:50.324Z,5.06
2023-03-28T21:09:30.374Z,5.30
2023-03-28T21:12:02.043Z,5.58
2023-03-28T21:14:30.146Z,5.31
2023-03-28T21:17:01.010Z,5.64
2023-03-28T21:19:37.996Z,5.64
2023-03-28T21:22:06.594Z,5.37
2023-03-28T21:24:35.268Z,5.20
2023-03-28T21:27:05.609Z,5.40
2023-03-28T21:29:38.432Z,5.14
2023-03-28T21:32:07.029Z,5.26
2023-03-28T21:34:36.859Z,5.67
2023-03-28T21:37:06.420Z,5.63
2023-03-28T21:39:39.526Z,5.61
2023-03-28T21:42:10.679Z,5.51
2023-03-28T21:44:38.945Z,5.46
2023-03-28T21:47:07.581Z,5.57
2023-03-28T21:49:42.455Z,5.38
2023-03-28T21:52:12.655Z,5.13
2023-03-28T21:54:44.906Z,5.31
2023-03-28T21:57:13.774Z,5.48
2023-03-28T21:59:44.132Z,5.33
2023-03-28T22:02:14.210Z,5.65
2023-03-28T22:04:43.220Z,5.65
2023-03-28T22:07:12.933Z,5.49
2023-03-28T22:09:44.398Z,5.58
2023-03-28T22:12:14.974Z,5.43
2023-03-28T22:14:43.726Z,5.19
2023-03-28T22:17:14.055Z,4.71
2023-03-28T22:19:42.529Z,4.69
2023-03-28T22:22:11.556Z,4.79
2023-03-28T22:24:39.288Z,5.02
2023-03-28T22:27:10.107Z,4.99
2023-03-28T22:29:40.096Z,5.05
2023-03-28T22:32:09.418Z,4.75
2023-03-28T22:34:41.566Z,4.59
2023-03-28T22:37:10.073Z,4.46
2023-03-28T22:39:40.847Z,4.81
2023-03-28T22:42:09.423Z,4.72
2023-03-28T22:44:37.753Z,4.78
2023-03-28T22:47:05.596Z,4.78
2023-03-28T22:49:34.250Z,4.76
2023-03-28T22:52:02.645Z,4.79
2023-03-28T22:54:33.518Z,4.92
2023-03-28T22:57:04.354Z,5.04
2023-03-28T22:59:33.183Z,4.84
2023-03-28T23:02:02.207Z,4.91
2023-03-28T23:04:33.184Z,4.82
2023-03-28T23:07:03.088Z,4.63
2023-03-28T23:09:33.080Z,4.61
2023-03-28T23:12:01.029Z,4.69
2023-03-28T23:14:29.696Z,4.52
2023-03-28T23:16:58.272Z,4.51
2023-03-28T23:19:26.139Z,4.45
2023-03-28T23:21:58.427Z,4.72
2023-03-28T23:24:30.160Z,4.61
2023-03-28T23:26:59.119Z,4.65
2023-03-28T23:29:26.732Z,4.57
2023-03-28T23:31:54.839Z,4.65
2023-03-28T23:34:23.207Z,4.63
2023-03-28T23:36:50.798Z,4.72
2023-03-28T23:39:19.825Z,4.67
2023-03-28T23:41:47.968Z,4.60
2023-03-28T23:44:15.502Z,4.62
2023-03-28T23:46:43.256Z,4.61
2023-03-28T23:49:12.524Z,4.36
2023-03-28T23:51:41.449Z,4.49
2023-03-28T23:54:10.106Z,4.18
2023-03-28T23:56:41.808Z,4.26
2023-03-28T23:59:09.414Z,4.28
